Time;durP1;ratioP1;P1;durP2;ratioP2;P2;SDS_P1;SDS_P2;PMS_P1;PMS_P2;Temp;Humidity;BMP_temperature;BMP_pressure;BME280_temperature;BME280_humidity;BME280_pressure;Samples;Min_cycle;Max_cycle;Signal;HPM_P1;HPM_P2
2022/08/26 00:00:54;;;;;;;19.40;8.35;;;;;;;23.11;78.43;100092.25;6017334;23;97127;-78
2022/08/26 00:03:20;;;;;;;23.70;8.45;;;;;;;23.11;78.25;100079.72;6016050;23;100848;-78
2022/08/26 00:05:47;;;;;;;11.27;7.20;;;;;;;23.09;78.29;100088.88;6040454;23;101409;-78
2022/08/26 00:08:14;;;;;;;16.48;8.05;;;;;;;23.27;77.90;100087.19;6041771;23;97011;-77
2022/08/26 00:10:40;;;;;;;16.35;7.20;;;;;;;23.25;77.84;100081.16;6040916;23;97291;-77
2022/08/26 00:13:06;;;;;;;16.13;7.25;;;;;;;23.31;77.38;100080.59;6040416;23;101293;-78
2022/08/26 00:15:31;;;;;;;16.50;7.07;;;;;;;23.29;77.19;100079.88;6039558;23;101370;-78
2022/08/26 00:17:57;;;;;;;13.20;6.95;;;;;;;23.25;77.17;100079.31;6017369;23;96697;-79
2022/08/26 00:20:31;;;;;;;17.80;7.10;;;;;;;23.28;76.65;100070.16;6040709;23;96898;-81
2022/08/26 00:22:56;;;;;;;18.55;7.15;;;;;;;23.24;76.79;100076.75;6016485;23;101785;-77
2022/08/26 00:25:23;;;;;;;14.90;6.97;;;;;;;23.17;77.04;100076.47;6014605;23;101540;-79
2022/08/26 00:27:48;;;;;;;14.90;6.82;;;;;;;23.07;77.09;100069.41;6063095;23;97131;-78
2022/08/26 00:30:17;;;;;;;21.45;7.20;;;;;;;22.99;77.66;100081.66;6041177;23;96747;-82
2022/08/26 00:32:43;;;;;;;17.20;8.18;;;;;;;22.85;78.47;100075.84;6014721;23;101783;-77
2022/08/26 00:35:10;;;;;;;12.75;7.00;;;;;;;22.83;78.48;100071.47;6013653;23;101861;-80
2022/08/26 00:37:36;;;;;;;17.15;8.25;;;;;;;22.90;78.11;100071.75;6063913;23;96967;-80
2022/08/26 00:40:04;;;;;;;16.83;7.22;;;;;;;23.01;77.93;100073.53;6040496;23;97119;-78
2022/08/26 00:42:29;;;;;;;15.82;7.68;;;;;;;23.09;77.43;100075.47;6035207;23;98135;-80
2022/08/26 00:44:55;;;;;;;14.45;7.00;;;;;;;23.07;77.13;100070.28;6012311;23;100794;-78
2022/08/26 00:47:53;;;;;;;20.45;7.97;;;;;;;22.97;77.52;100072.91;6039608;23;97054;-78
2022/08/26 00:50:29;;;;;;;13.15;6.93;;;;;;;22.88;77.41;100049.63;5995199;23;96818;-81
2022/08/26 00:52:57;;;;;;;19.95;7.28;;;;;;;22.97;77.39;100074.75;6065119;23;98388;-78
2022/08/26 00:55:32;;;;;;;19.42;7.13;;;;;;;22.76;77.41;100048.06;6039202;23;97742;-81
2022/08/26 00:57:58;;;;;;;16.10;7.07;;;;;;;22.93;76.94;100063.47;6014994;23;97171;-79
2022/08/26 01:00:27;;;;;;;13.63;7.10;;;;;;;22.98;76.95;100063.94;6039616;23;96811;-78
2022/08/26 01:02:54;;;;;;;11.32;7.78;;;;;;;22.96;76.85;100065.03;6038038;23;101693;-79
2022/08/26 01:05:21;;;;;;;15.40;7.22;;;;;;;22.90;76.74;100050.34;6033721;23;99549;-79
2022/08/26 01:07:46;;;;;;;12.90;6.75;;;;;;;22.99;76.64;100070.97;6039408;23;97240;-78
2022/08/26 01:10:15;;;;;;;17.65;7.28;;;;;;;22.82;76.61;100048.34;6038846;23;97096;-80
2022/08/26 01:12:44;;;;;;;18.70;7.88;;;;;;;22.87;77.03;100068.53;6035938;23;98077;-78
2022/08/26 01:15:16;;;;;;;12.35;6.53;;;;;;;22.81;77.26;100064.56;6014057;23;101834;-77
2022/08/26 01:17:42;;;;;;;12.73;6.30;;;;;;;22.83;77.10;100065.25;6018685;23;97179;-81
2022/08/26 01:20:12;;;;;;;20.15;8.55;;;;;;;22.71;77.23;100056.50;6042312;23;96774;-80
2022/08/26 01:23:00;;;;;;;15.40;7.45;;;;;;;22.67;77.79;100070.28;6039573;23;101072;-79
2022/08/26 01:25:27;;;;;;;12.13;7.93;;;;;;;22.76;77.24;100062.28;6039610;23;101459;-77
2022/08/26 01:27:56;;;;;;;17.52;7.57;;;;;;;22.61;77.52;100050.28;6040181;23;96865;-78
2022/08/26 01:30:23;;;;;;;20.60;8.65;;;;;;;22.81;77.16;100068.09;6064670;23;96991;-79
2022/08/26 01:32:50;;;;;;;30.50;9.50;;;;;;;22.79;77.04;100061.16;6039841;23;101390;-78
2022/08/26 01:35:16;;;;;;;14.23;7.38;;;;;;;22.70;76.92;100037.91;6016588;23;100963;-77
2022/08/26 01:37:41;;;;;;;18.25;8.25;;;;;;;22.58;77.85;100064.78;6064602;23;96644;-79
2022/08/26 01:40:12;;;;;;;16.67;7.65;;;;;;;22.64;77.60;100066.06;6040780;23;96955;-80
2022/08/26 01:42:39;;;;;;;;;;;;;;;22.54;78.15;100071.38;6040723;23;101357;-77
2022/08/26 01:45:10;;;;;;;14.90;8.23;;;;;;;22.65;77.67;100073.09;6016527;23;101022;-77
2022/08/26 01:47:36;;;;;;;18.45;8.35;;;;;;;22.61;77.76;100069.00;6040450;23;96729;-77
2022/08/26 01:50:07;;;;;;;19.02;8.57;;;;;;;22.49;77.52;100052.22;6040786;23;97189;-80
2022/08/26 01:52:35;;;;;;;16.17;7.90;;;;;;;22.68;77.14;100074.66;6015784;23;101512;-78
2022/08/26 01:55:01;;;;;;;13.65;7.60;;;;;;;22.68;77.18;100074.66;6039482;23;101423;-77
2022/08/26 01:57:27;;;;;;;16.38;7.60;;;;;;;22.62;77.16;100068.00;6016439;23;97059;-77
2022/08/26 01:59:56;;;;;;;21.42;7.38;;;;;;;22.59;77.14;100071.81;6040640;23;96912;-78
2022/08/26 02:02:22;;;;;;;13.95;7.53;;;;;;;22.57;77.25;100075.59;6039778;23;101218;-82
2022/08/26 02:04:58;;;;;;;17.30;7.75;;;;;;;22.38;77.66;100068.34;6040221;23;101270;-78
2022/08/26 02:07:24;;;;;;;15.82;8.02;;;;;;;22.44;77.49;100069.63;6016265;23;97080;-80
2022/08/26 02:09:50;;;;;;;16.42;8.13;;;;;;;22.44;77.38;100066.97;6017405;23;96829;-78
2022/08/26 02:12:17;;;;;;;16.40;6.93;;;;;;;22.42;77.45;100061.75;6038578;23;101595;-77
2022/08/26 02:14:49;;;;;;;17.90;7.47;;;;;;;22.45;77.38;100064.13;6035665;23;101619;-80
2022/08/26 02:17:15;;;;;;;14.52;6.97;;;;;;;22.51;77.15;100070.78;6062972;23;97095;-78
2022/08/26 02:19:45;;;;;;;14.40;6.82;;;;;;;22.46;76.93;100068.53;6062845;23;97291;-81
2022/08/26 02:22:17;;;;;;;10.98;7.32;;;;;;;22.52;76.92;100064.47;6032222;23;100773;-79
2022/08/26 02:24:49;;;;;;;12.60;7.38;;;;;;;22.49;76.79;100070.94;6013393;23;100911;-81
2022/08/26 02:27:17;;;;;;;13.95;6.60;;;;;;;22.50;76.67;100077.13;6037934;23;97213;-77
2022/08/26 02:29:45;;;;;;;11.30;6.82;;;;;;;22.40;77.02;100074.41;6013461;23;97163;-78
2022/08/26 02:32:11;;;;;;;12.25;6.93;;;;;;;22.31;77.02;100060.03;6038774;23;101412;-80
2022/08/26 02:34:37;;;;;;;11.55;6.35;;;;;;;22.35;76.81;100060.59;6063480;23;97964;-80
2022/08/26 02:37:06;;;;;;;10.32;6.90;;;;;;;22.38;76.79;100061.16;6040697;23;97613;-77
2022/08/26 02:39:33;;;;;;;18.05;7.55;;;;;;;22.41;76.83;100065.41;6035056;23;97188;-77
2022/08/26 02:41:59;;;;;;;15.15;7.28;;;;;;;22.38;76.65;100055.81;6031532;23;101305;-78
2022/08/26 02:44:25;;;;;;;9.98;7.05;;;;;;;22.37;76.56;100058.66;6059358;23;97289;-80
2022/08/26 02:46:51;;;;;;;16.80;7.40;;;;;;;22.36;76.80;100052.44;6036782;23;97070;-78
2022/08/26 02:49:18;;;;;;;15.68;7.82;;;;;;;22.31;76.76;100048.47;6039335;23;97063;-78
2022/08/26 02:51:44;;;;;;;14.30;7.78;;;;;;;22.28;77.08;100054.06;6038775;23;100974;-78
2022/08/26 02:54:10;;;;;;;19.27;7.15;;;;;;;22.31;76.91;100048.47;6039099;23;101308;-78
2022/08/26 02:56:36;;;;;;;11.13;7.18;;;;;;;22.23;76.83;100042.97;6039708;23;96941;-80
2022/08/26 02:59:01;;;;;;;11.70;6.65;;;;;;;22.21;77.05;100040.41;6041161;23;97238;-77
2022/08/26 03:01:31;;;;;;;16.05;6.35;;;;;;;22.04;77.35;100032.97;6011376;23;101045;-79
2022/08/26 03:03:57;;;;;;;13.38;6.75;;;;;;;22.14;77.48;100049.91;6037928;23;101177;-79
2022/08/26 03:06:23;;;;;;;14.52;7.35;;;;;;;22.10;77.21;100040.47;6014317;23;96724;-81
2022/08/26 03:08:49;;;;;;;15.73;5.78;;;;;;;22.03;76.86;100032.13;6039536;23;97289;-77
2022/08/26 03:11:15;;;;;;;12.70;6.75;;;;;;;22.00;76.67;100018.19;6039501;23;97464;-78
2022/08/26 03:13:41;;;;;;;11.23;6.38;;;;;;;22.09;76.58;100033.44;6038694;23;97271;-79
2022/08/26 03:16:07;;;;;;;14.63;6.07;;;;;;;22.09;76.54;100049.47;6039968;23;96749;-77
2022/08/26 03:18:32;;;;;;;13.88;7.30;;;;;;;22.09;76.66;100041.44;6039775;23;97135;-78
2022/08/26 03:21:04;;;;;;;13.05;6.47;;;;;;;22.04;76.85;100044.50;6016030;23;101573;-77
2022/08/26 03:23:30;;;;;;;8.40;5.78;;;;;;;22.03;77.10;100047.31;6015347;23;101543;-79
2022/08/26 03:25:55;;;;;;;13.32;5.85;;;;;;;22.03;76.91;100041.97;6064626;23;97045;-77
2022/08/26 03:28:21;;;;;;;10.55;6.68;;;;;;;21.93;77.00;100034.75;6016707;23;96830;-77
2022/08/26 03:30:46;;;;;;;15.05;6.43;;;;;;;21.74;77.34;100028.44;6039644;23;99301;-78
2022/08/26 03:33:13;;;;;;;15.95;6.75;;;;;;;21.64;77.67;100020.34;6040433;23;97413;-77
2022/08/26 03:35:39;;;;;;;12.93;6.32;;;;;;;;;;6063861;23;97079;-79
2022/08/26 03:38:07;;;;;;;16.58;7.80;;;;;;;21.84;77.41;100050.72;6040275;23;96794;-79
2022/08/26 03:40:33;;;;;;;9.23;5.88;;;;;;;21.93;77.15;100052.59;6064478;23;97948;-77
2022/08/26 03:42:59;;;;;;;13.15;6.97;;;;;;;21.84;76.77;100024.84;6039589;23;100988;-80
2022/08/26 03:45:25;;;;;;;13.32;5.97;;;;;;;21.92;76.99;100042.91;6040035;23;97117;-83
2022/08/26 03:47:51;;;;;;;13.00;5.78;;;;;;;21.81;76.75;100021.59;6041666;23;96817;-80
2022/08/26 03:50:20;;;;;;;14.77;6.25;;;;;;;21.85;76.80;100028.38;6064755;23;97528;-79
2022/08/26 03:52:46;;;;;;;7.93;5.50;;;;;;;21.85;76.66;100029.22;6039197;23;101519;-80
2022/08/26 03:55:13;;;;;;;7.65;5.68;;;;;;;21.70;76.76;100003.84;6015190;23;96732;-79
2022/08/26 03:57:39;;;;;;;13.20;5.97;;;;;;;21.78;76.96;100033.38;6016175;23;97029;-80
2022/08/26 04:00:07;;;;;;;11.82;6.55;;;;;;;21.75;77.31;100040.81;6040423;23;98028;-79
2022/08/26 04:02:34;;;;;;;12.82;6.07;;;;;;;21.77;76.97;100031.69;6064387;23;97792;-80
2022/08/26 04:04:59;;;;;;;10.20;5.97;;;;;;;21.78;76.98;100040.56;6040138;23;97005;-79
2022/08/26 04:07:25;;;;;;;9.30;6.05;;;;;;;21.85;76.63;100029.22;6040209;23;97292;-83
2022/08/26 04:09:57;;;;;;;7.03;5.20;;;;;;;21.89;76.70;100037.81;6038738;23;101324;-78
2022/08/26 04:12:24;;;;;;;12.05;5.40;;;;;;;21.86;76.72;100044.25;6012098;23;100935;-78
2022/08/26 04:14:51;;;;;;;7.18;5.63;;;;;;;21.88;76.54;100034.31;6036743;23;97371;-80
2022/08/26 04:17:17;;;;;;;6.30;5.53;;;;;;;21.82;76.97;100037.50;6040506;23;96996;-80
2022/08/26 04:19:43;;;;;;;6.90;4.95;;;;;;;21.81;76.69;100027.78;6014734;23;101137;-80
2022/08/26 04:22:08;;;;;;;12.02;6.53;;;;;;;21.85;76.72;100029.22;6012458;23;101863;-79
2022/08/26 04:24:35;;;;;;;8.85;6.53;;;;;;;21.83;76.99;100035.69;6038683;23;97292;-80
2022/08/26 04:27:02;;;;;;;8.30;6.05;;;;;;;21.91;76.66;100033.19;6037702;23;96939;-79
2022/08/26 04:29:46;;;;;;;13.80;7.28;;;;;;;21.91;76.88;100028.69;6038822;23;100867;-81
2022/08/26 04:32:12;;;;;;;9.50;7.38;;;;;;;21.75;76.99;100016.78;6040215;23;101051;-78
2022/08/26 04:34:37;;;;;;;11.00;8.20;;;;;;;21.94;76.82;100035.59;6039531;23;97141;-80
2022/08/26 04:37:04;;;;;;;15.05;8.48;;;;;;;21.77;76.91;100006.81;6012038;23;97036;-80
2022/08/26 04:39:29;;;;;;;12.18;8.90;;;;;;;21.86;76.98;100032.72;6039325;23;101411;-77
2022/08/26 04:41:55;;;;;;;19.10;10.60;;;;;;;22.08;76.65;100048.63;6039661;23;101452;-79
2022/08/26 04:44:23;;;;;;;9.88;7.85;;;;;;;22.06;76.40;100042.56;6015710;23;96912;-78
2022/08/26 04:46:49;;;;;;;11.88;8.60;;;;;;;22.23;75.95;100041.13;6040362;23;96836;-77
2022/08/26 04:49:14;;;;;;;13.85;8.45;;;;;;;22.22;75.59;100031.41;6040374;23;97548;-79
2022/08/26 04:51:40;;;;;;;10.90;7.60;;;;;;;22.29;75.25;100026.38;6039544;23;97622;-80
2022/08/26 04:54:06;;;;;;;15.32;8.35;;;;;;;22.34;75.15;100035.69;6038608;23;97143;-80
2022/08/26 04:56:38;;;;;;;11.77;8.32;;;;;;;22.45;74.98;100034.72;6039083;23;97081;-79
2022/08/26 04:59:06;;;;;;;13.18;8.32;;;;;;;22.45;75.05;100025.88;6040649;23;97232;-79
2022/08/26 05:01:33;;;;;;;9.90;8.63;;;;;;;22.59;74.84;100044.22;6015692;23;101210;-79
2022/08/26 05:04:00;;;;;;;8.77;7.88;;;;;;;22.70;74.59;100046.78;6038834;23;97712;-79
2022/08/26 05:06:25;;;;;;;12.55;7.60;;;;;;;22.75;74.34;100041.88;6039445;23;96901;-77
2022/08/26 05:08:51;;;;;;;8.57;7.20;;;;;;;22.79;74.45;100039.75;6038409;23;97923;-79
2022/08/26 05:11:16;;;;;;;11.30;7.95;;;;;;;22.85;74.39;100044.56;6039708;23;97312;-78
2022/08/26 05:13:42;;;;;;;8.15;6.85;;;;;;;22.86;74.06;100029.34;6039857;23;97127;-80
2022/08/26 05:16:10;;;;;;;12.73;7.25;;;;;;;23.11;73.26;100047.59;6040362;23;97164;-77
2022/08/26 05:18:37;;;;;;;11.50;7.85;;;;;;;23.16;73.21;100044.50;6039100;23;100642;-76
2022/08/26 05:21:03;;;;;;;12.02;7.97;;;;;;;23.39;72.52;100048.59;6039079;23;101359;-78
2022/08/26 05:23:30;;;;;;;7.90;7.18;;;;;;;23.41;72.29;100040.41;6038636;23;96690;-82
2022/08/26 05:25:57;;;;;;;14.20;8.45;;;;;;;23.53;72.21;100047.31;6014869;23;97261;-79
2022/08/26 05:28:23;;;;;;;10.48;8.02;;;;;;;23.52;72.19;100034.06;6039245;23;98635;-79
2022/08/26 05:30:50;;;;;;;14.25;7.97;;;;;;;23.74;71.91;100047.19;6038550;23;98300;-77
2022/08/26 05:33:16;;;;;;;15.15;7.55;;;;;;;23.84;71.99;100037.28;6062068;23;96731;-79
2022/08/26 05:35:43;;;;;;;12.02;8.68;;;;;;;24.00;71.08;100047.44;6038427;23;97383;-79
2022/08/26 05:38:13;;;;;;;15.55;8.85;;;;;;;24.15;71.14;100045.13;6039143;23;101595;-79
2022/08/26 05:40:50;;;;;;;11.30;7.47;;;;;;;24.26;70.32;100046.75;6038030;23;101416;-79
2022/08/26 05:43:16;;;;;;;14.52;7.90;;;;;;;24.34;70.01;100030.78;6083320;23;97165;-78
2022/08/26 05:45:44;;;;;;;10.20;7.88;;;;;;;24.54;69.78;100039.63;6038719;23;96861;-81
2022/08/26 05:48:09;;;;;;;12.73;8.30;;;;;;;24.47;69.37;100030.50;6040214;23;97558;-78
2022/08/26 05:50:43;;;;;;;15.85;7.85;;;;;;;24.59;69.29;100038.19;6016583;23;101251;-82
2022/08/26 05:53:10;;;;;;;15.35;9.68;;;;;;;24.97;68.48;100036.25;6011528;23;97297;-80
2022/08/26 05:55:44;;;;;;;18.35;8.98;;;;;;;25.14;67.47;100039.97;6039431;23;97088;-80
2022/08/26 05:58:10;;;;;;;17.95;9.30;;;;;;;25.13;67.08;100013.25;6040082;23;101568;-79
2022/08/26 06:00:36;;;;;;;21.80;9.68;;;;;;;25.38;67.19;100022.41;6040146;23;97887;-79
2022/08/26 06:03:01;;;;;;;20.75;10.63;;;;;;;25.80;66.35;100030.59;6016360;23;96702;-81
2022/08/26 06:05:27;;;;;;;26.88;11.50;;;;;;;26.13;65.04;100037.09;6041251;23;96776;-81
2022/08/26 06:08:12;;;;;;;19.80;9.57;;;;;;;26.35;64.20;100019.53;6038668;23;97393;-84
2022/08/26 06:10:51;;;;;;;21.92;9.77;;;;;;;26.57;62.97;100022.69;6067558;23;98202;-79
2022/08/26 06:13:18;;;;;;;19.10;9.80;;;;;;;26.54;62.30;100023.84;6036809;23;97161;-80
2022/08/26 06:15:45;;;;;;;20.85;9.50;;;;;;;26.79;62.61;100034.69;6015607;23;97082;-84
2022/08/26 06:18:13;;;;;;;17.67;8.88;;;;;;;27.08;61.80;100029.72;6038398;23;101107;-84
2022/08/26 06:20:42;;;;;;;24.42;9.65;;;;;;;27.38;61.46;100019.34;6037927;23;101155;-80
2022/08/26 06:25:57;;;;;;;14.77;9.30;;;;;;;28.20;58.51;100021.94;6035967;23;97288;-79
2022/08/26 06:28:23;;;;;;;17.90;9.13;;;;;;;28.46;57.76;100040.59;6036360;23;101649;-80
2022/08/26 06:30:49;;;;;;;21.80;9.18;;;;;;;28.62;57.84;100031.56;6035540;23;101697;-80
2022/08/26 06:33:14;;;;;;;21.48;8.85;;;;;;;28.86;57.17;100025.22;6036822;23;96776;-80
2022/08/26 06:35:41;;;;;;;23.90;9.02;;;;;;;29.41;56.23;100036.84;6060892;23;97458;-80
2022/08/26 06:38:08;;;;;;;20.85;9.77;;;;;;;29.91;55.32;100027.31;6037254;23;97685;-80
2022/08/26 06:40:40;;;;;;;21.20;9.60;;;;;;;30.14;54.00;100033.50;6054825;23;98380;-80
2022/08/26 06:43:05;;;;;;;19.42;8.48;;;;;;;30.58;53.24;100032.66;6011641;23;97277;-80
2022/08/26 06:45:31;;;;;;;20.83;9.00;;;;;;;31.21;51.57;100032.13;6060471;23;97084;-81
2022/08/26 06:47:57;;;;;;;15.55;8.35;;;;;;;32.25;49.43;100022.34;6010921;23;101765;-80
2022/08/26 06:50:23;;;;;;;20.42;8.80;;;;;;;33.26;47.12;100018.13;6060783;23;97798;-80
2022/08/26 06:52:48;;;;;;;18.92;8.52;;;;;;;33.78;45.41;100014.59;6012249;23;97141;-83
2022/08/26 06:55:14;;;;;;;16.17;8.70;;;;;;;34.40;44.04;100017.81;6038640;23;96787;-80
2022/08/26 06:57:39;;;;;;;18.75;7.88;;;;;;;34.48;43.31;100011.31;6036800;23;101212;-80
2022/08/26 07:00:14;;;;;;;16.45;8.30;;;;;;;34.90;42.47;100014.47;6038425;23;100948;-78
2022/08/26 07:02:40;;;;;;;14.00;8.27;;;;;;;35.50;41.28;100012.19;6039528;23;96726;-80
2022/08/26 07:05:06;;;;;;;18.98;7.25;;;;;;;36.89;39.72;100018.06;6014784;23;97256;-79
2022/08/26 07:07:31;;;;;;;18.95;8.40;;;;;;;37.78;37.43;100014.59;6014150;23;100375;-81
2022/08/26 07:09:57;;;;;;;16.58;8.55;;;;;;;37.97;36.49;100007.13;6037632;23;101309;-79
2022/08/26 07:12:22;;;;;;;17.20;8.45;;;;;;;38.24;35.84;99991.81;6039306;23;97271;-80
2022/08/26 07:14:48;;;;;;;16.38;8.18;;;;;;;38.64;35.74;100010.19;6037194;23;97177;-78
2022/08/26 07:17:14;;;;;;;21.30;9.10;;;;;;;38.39;35.15;100002.25;6037372;23;101104;-79
2022/08/26 07:19:40;;;;;;;15.93;7.45;;;;;;;38.11;36.61;100000.31;6037312;23;101356;-79
2022/08/26 07:22:05;;;;;;;19.17;8.80;;;;;;;39.30;35.06;100002.41;6039278;23;96600;-79
2022/08/26 07:24:33;;;;;;;19.95;8.82;;;;;;;39.95;33.67;100002.84;6038376;23;97218;-77
2022/08/26 07:27:00;;;;;;;18.02;7.95;;;;;;;40.23;33.60;100001.88;6038868;23;97751;-78
2022/08/26 07:29:27;;;;;;;18.33;8.73;;;;;;;40.05;33.34;99981.81;6014914;23;101001;-79
2022/08/26 07:31:53;;;;;;;19.58;8.38;;;;;;;39.76;33.31;100003.13;6037583;23;96763;-79
2022/08/26 07:34:19;;;;;;;25.52;8.02;;;;;;;40.02;33.17;99996.06;6038668;23;96781;-76
2022/08/26 07:36:44;;;;;;;13.00;7.70;;;;;;;40.94;32.09;99999.94;6011443;23;101384;-79
2022/08/26 07:39:10;;;;;;;13.82;7.05;;;;;;;41.77;30.94;99994.03;6036212;23;97405;-84
2022/08/26 07:41:35;;;;;;;22.33;5.97;;;;;;;42.27;30.95;99983.59;6011605;23;96683;-80
2022/08/26 07:44:01;;;;;;;17.08;6.53;;;;;;;42.05;30.80;99992.03;6011493;23;96980;-84
2022/08/26 07:46:27;;;;;;;16.45;7.22;;;;;;;41.44;30.90;99975.06;6012025;23;101710;-83
2022/08/26 07:48:52;;;;;;;17.17;6.47;;;;;;;41.53;31.00;99984.53;6034303;23;97394;-83
2022/08/26 07:51:19;;;;;;;16.23;6.00;;;;;;;41.88;30.91;99986.66;6031438;23;97130;-84
2022/08/26 07:53:45;;;;;;;16.58;6.22;;;;;;;41.98;30.18;99978.50;6011662;23;96826;-79
2022/08/26 07:56:13;;;;;;;15.85;6.43;;;;;;;41.98;29.47;99974.88;6034336;23;97487;-82
2022/08/26 07:58:39;;;;;;;17.00;6.75;;;;;;;42.34;29.83;99978.66;6009929;23;100991;-80
2022/08/26 08:01:04;;;;;;;16.85;7.65;;;;;;;42.73;28.63;99987.38;6033406;23;97173;-78
2022/08/26 08:03:30;;;;;;;14.25;5.80;;;;;;;43.10;27.76;99989.03;6035058;23;97346;-80
2022/08/26 08:05:56;;;;;;;16.13;6.53;;;;;;;42.88;28.16;99994.84;6036462;23;97422;-81
2022/08/26 08:08:21;;;;;;;13.43;6.93;;;;;;;41.99;28.83;99995.84;6033517;23;100828;-81
2022/08/26 08:10:47;;;;;;;16.20;6.03;;;;;;;41.85;29.82;99995.47;6036090;23;97414;-80
2022/08/26 08:13:13;;;;;;;20.95;5.72;;;;;;;42.59;29.39;99986.19;6036206;23;96809;-79
2022/08/26 08:15:39;;;;;;;18.90;6.43;;;;;;;42.66;28.99;99988.69;6035273;23;101064;-79
2022/08/26 08:18:05;;;;;;;16.38;6.53;;;;;;;42.28;28.96;99982.47;6037086;23;97891;-80
2022/08/26 08:20:31;;;;;;;12.80;5.90;;;;;;;41.92;30.36;99990.59;6036120;23;97300;-80
2022/08/26 08:22:57;;;;;;;14.77;6.32;;;;;;;42.10;29.62;99977.44;6034645;23;97252;-81
2022/08/26 08:25:23;;;;;;;14.88;6.63;;;;;;;42.04;29.73;99966.41;6011867;23;101072;-81
2022/08/26 08:27:49;;;;;;;13.60;5.90;;;;;;;42.33;29.73;99988.06;6036014;23;101117;-80
2022/08/26 08:30:18;;;;;;;15.80;5.63;;;;;;;41.87;30.45;99978.69;6032562;23;96738;-85
2022/08/26 08:32:44;;;;;;;14.30;5.68;;;;;;;41.60;30.05;99987.88;6012458;23;96865;-81
2022/08/26 08:35:15;;;;;;;14.15;5.72;;;;;;;41.26;29.87;99963.38;6012705;23;102452;-80
2022/08/26 08:37:42;;;;;;;14.65;6.65;;;;;;;41.58;30.26;99974.38;6007464;23;99717;-81
2022/08/26 08:40:09;;;;;;;15.68;6.18;;;;;;;42.69;28.70;99977.94;6012523;23;96679;-79
2022/08/26 08:42:47;;;;;;;17.67;6.55;;;;;;;42.33;28.49;99976.16;6012682;23;97401;-84
2022/08/26 08:45:22;;;;;;;11.90;5.35;;;;;;;42.90;27.76;99972.47;6036431;23;101307;-80
2022/08/26 08:47:51;;;;;;;13.73;5.47;;;;;;;42.65;27.83;99970.50;6035697;23;100926;-79
2022/08/26 08:50:21;;;;;;;13.18;5.60;;;;;;;42.03;27.49;99958.38;6060544;23;97178;-80
2022/08/26 08:53:13;;;;;;;9.85;5.70;;;;;;;41.86;27.26;99964.06;6011345;23;97221;-79
2022/08/26 08:55:49;;;;;;;22.05;5.63;;;;;;;42.76;27.01;99963.06;6059735;23;97145;-79
2022/08/26 08:58:19;;;;;;;12.95;5.93;;;;;;;42.87;27.21;99943.47;6060927;23;100859;-82
2022/08/26 09:00:59;;;;;;;13.90;5.60;;;;;;;43.14;25.80;99967.25;6014357;23;96825;-79
2022/08/26 09:03:36;;;;;;;14.45;4.97;;;;;;;42.15;27.70;99958.97;6012518;23;97160;-78
2022/08/26 09:06:02;;;;;;;14.38;5.65;;;;;;;41.95;28.43;99953.38;6014442;23;100611;-79
2022/08/26 09:08:33;;;;;;;12.82;5.30;;;;;;;41.97;28.52;99935.47;6038719;23;101971;-80
2022/08/26 09:11:00;;;;;;;16.33;5.40;;;;;;;41.97;28.22;99953.94;6039526;23;96731;-79
2022/08/26 09:13:26;;;;;;;13.40;5.65;;;;;;;41.92;27.40;99948.41;6037468;23;96716;-79
2022/08/26 09:16:01;;;;;;;11.35;5.05;;;;;;;41.93;27.24;99923.34;6037602;23;101545;-80
2022/08/26 09:18:45;;;;;;;14.88;5.00;;;;;;;42.16;26.80;99951.56;6038846;23;100752;-79
2022/08/26 09:21:13;;;;;;;12.55;4.50;;;;;;;42.20;27.15;99942.47;6040045;23;97317;-79
2022/08/26 09:23:41;;;;;;;14.17;5.17;;;;;;;42.48;26.18;99919.16;6062935;23;97530;-81
2022/08/26 09:26:19;;;;;;;11.55;5.35;;;;;;;42.40;25.38;99952.75;6063739;23;97953;-78
2022/08/26 09:28:47;;;;;;;12.98;4.40;;;;;;;41.81;26.53;99948.34;6062057;23;101594;-79
2022/08/26 09:31:34;;;;;;;10.75;4.80;;;;;;;41.57;27.73;99931.41;6039358;23;97228;-79
2022/08/26 09:34:06;;;;;;;10.85;4.75;;;;;;;41.90;27.80;99948.69;6038214;23;97081;-79
2022/08/26 09:36:50;;;;;;;11.73;4.65;;;;;;;42.11;25.92;99946.84;6060060;23;99286;-78
2022/08/26 09:39:26;;;;;;;17.20;5.20;;;;;;;41.58;26.29;99948.75;6038386;23;101589;-78
2022/08/26 09:42:08;;;;;;;16.67;5.07;;;;;;;41.36;26.86;99937.84;6063067;23;97061;-80
2022/08/26 09:44:51;;;;;;;17.40;5.07;;;;;;;41.55;26.93;99938.28;6014760;23;96754;-80
2022/08/26 09:47:21;;;;;;;11.60;4.63;;;;;;;41.20;27.87;99936.09;6063333;23;97995;-79
2022/08/26 09:49:56;;;;;;;9.82;4.80;;;;;;;40.49;27.88;99928.75;6037544;23;101329;-79
2022/08/26 09:52:25;;;;;;;14.40;4.25;;;;;;;40.24;27.06;99923.84;6063328;23;97032;-79
2022/08/26 09:54:59;;;;;;;;;;;;;;;39.36;27.56;99927.28;6062505;23;96969;-80
2022/08/26 09:57:29;;;;;;;12.93;4.32;;;;;;;38.96;27.69;99924.69;6013628;23;101072;-79
2022/08/26 09:59:54;;;;;;;12.32;4.38;;;;;;;38.07;28.19;99918.84;6061749;23;97368;-79
2022/08/26 10:02:32;;;;;;;10.20;4.68;;;;;;;37.57;28.23;99925.69;6038676;23;97136;-80
2022/08/26 10:04:59;;;;;;;10.13;4.18;;;;;;;37.11;28.79;99916.34;6033592;23;97411;-78
2022/08/26 10:07:38;;;;;;;10.40;4.72;;;;;;;36.92;30.07;99921.88;6087753;23;97450;-79
2022/08/26 10:10:08;;;;;;;11.02;4.60;;;;;;;36.50;30.50;99891.78;6059511;23;101827;-76
2022/08/26 10:12:37;;;;;;;15.18;4.63;;;;;;;36.52;31.07;99921.66;6035804;23;97423;-78
2022/08/26 10:15:08;;;;;;;14.60;4.88;;;;;;;36.35;30.89;99918.69;6032978;23;97348;-81
2022/08/26 10:17:44;;;;;;;18.15;4.20;;;;;;;35.93;32.02;99901.34;6014801;23;100611;-83
2022/08/26 10:20:17;;;;;;;14.23;4.70;;;;;;;35.98;32.58;99915.97;6039860;23;100605;-84
2022/08/26 10:22:54;;;;;;;13.15;4.20;;;;;;;35.52;31.58;99913.72;6014369;23;97070;-78
2022/08/26 10:25:24;;;;;;;6.07;3.90;;;;;;;35.29;31.04;99914.38;6038904;23;97081;-81
2022/08/26 10:28:16;;;;;;;10.15;4.55;;;;;;;34.92;33.66;99906.88;6039620;23;100970;-74
2022/08/26 10:30:46;;;;;;;15.52;4.32;;;;;;;34.65;31.13;99921.75;6062664;23;97867;-76
2022/08/26 10:33:14;;;;;;;9.85;4.00;;;;;;;34.26;30.51;99905.34;6037837;23;96980;-77
2022/08/26 10:35:54;;;;;;;9.25;4.60;;;;;;;33.96;30.48;99901.50;6036188;23;97402;-76
2022/08/26 10:38:26;;;;;;;9.85;4.38;;;;;;;33.63;31.61;99913.31;6064378;23;97260;-76
2022/08/26 10:41:13;;;;;;;14.45;4.68;;;;;;;33.53;31.65;99905.56;6060127;23;98047;-77
2022/08/26 10:43:42;;;;;;;10.48;4.80;;;;;;;33.38;31.89;99904.13;6034181;23;97272;-76
2022/08/26 10:46:13;;;;;;;13.25;4.72;;;;;;;33.05;32.85;99894.94;6059621;23;97094;-76
2022/08/26 10:48:55;;;;;;;15.82;5.15;;;;;;;32.78;32.63;99896.75;6060401;23;97881;-76
2022/08/26 10:51:25;;;;;;;15.48;4.63;;;;;;;32.46;33.05;99888.38;6036804;23;97336;-76
2022/08/26 10:54:02;;;;;;;10.75;5.30;;;;;;;32.48;34.34;99890.84;6060608;23;97023;-76
2022/08/26 10:56:40;;;;;;;13.23;4.20;;;;;;;32.49;33.80;99895.22;6035889;23;96849;-76
2022/08/26 10:59:08;;;;;;;14.18;4.60;;;;;;;32.30;33.67;99888.69;6083908;23;98465;-76
2022/08/26 11:01:47;;;;;;;18.85;4.13;;;;;;;31.89;33.81;99892.25;6060298;23;101604;-73
2022/08/26 11:04:21;;;;;;;12.43;4.03;;;;;;;31.92;33.69;99886.47;6036814;23;97178;-74
2022/08/26 11:06:47;;;;;;;11.93;4.75;;;;;;;31.79;34.47;99880.91;6059711;23;96923;-75
2022/08/26 11:09:45;;;;;;;14.07;4.63;;;;;;;31.55;35.16;99885.78;6088349;23;97353;-75
2022/08/26 11:12:35;;;;;;;11.57;4.68;;;;;;;31.62;34.98;99879.56;6032056;23;98118;-74
2022/08/26 11:15:01;;;;;;;;;;;;;;;31.27;35.82;99874.97;6060905;23;96844;-74
2022/08/26 11:17:45;;;;;;;12.45;4.13;;;;;;;31.42;36.58;99868.63;6062117;23;96955;-74
2022/08/26 11:20:26;;;;;;;14.27;5.32;;;;;;;31.45;37.53;99868.22;6061576;23;101191;-75
2022/08/26 11:22:53;;;;;;;11.05;5.35;;;;;;;31.33;38.41;99862.50;6087388;23;97888;-80
2022/08/26 11:25:23;;;;;;;19.45;5.28;;;;;;;31.24;38.25;99864.50;6061970;23;97206;-77
2022/08/26 11:27:49;;;;;;;10.98;4.90;;;;;;;31.35;37.73;99865.84;6012881;23;97007;-79
2022/08/26 11:30:14;;;;;;;11.02;4.88;;;;;;;31.34;38.46;99861.44;6037673;23;100337;-79